Time;durP1;ratioP1;P1;durP2;ratioP2;P2;SDS_P1;SDS_P2;PMS_P1;PMS_P2;Temp;Humidity;BMP_temperature;BMP_pressure;BME280_temperature;BME280_humidity;BME280_pressure;Samples;Min_cycle;Max_cycle;Signal;HPM_P1;HPM_P2
2023/06/03 00:01:56;;;;;;;;;;;;;;;21.67;29.82;97554.88;4963661;28;1438;-75
2023/06/03 00:04:22;;;;;;;;;;;;;;;21.56;30.15;97554.44;4979813;28;1066;-76
2023/06/03 00:06:47;;;;;;;;;;;;;;;21.62;29.59;97552.63;4979656;28;1476;-75
2023/06/03 00:09:13;;;;;;;;;;;;;;;21.48;29.93;97548.22;4979072;28;1449;-75
2023/06/03 00:11:39;;;;;;;;;;;;;;;21.27;30.53;97555.34;4979741;28;1021;-76
2023/06/03 00:14:04;;;;;;;;;;;;;;;21.31;30.41;97547.56;4996110;28;817;-75
2023/06/03 00:16:32;;;;;;;;;;;;;;;21.21;30.77;97554.31;4979683;28;1969;-75
2023/06/03 00:18:58;;;;;;;;;;;;;;;21.38;30.24;97548.56;4963316;28;894;-75
2023/06/03 00:21:24;;;;;;;;;;;;;;;21.48;30.35;97547.44;4978944;28;1453;-76
2023/06/03 00:23:49;;;;;;;;;;;;;;;21.45;30.18;97537.00;4995836;28;1061;-75
2023/06/03 00:26:15;;;;;;;;;;;;;;;21.51;30.18;97536.00;4996113;28;915;-75
2023/06/03 00:28:42;;;;;;;;;;;;;;;21.60;30.49;97540.94;4979033;28;1325;-75
2023/06/03 00:31:08;;;;;;;;;;;;;;;21.54;30.53;97540.72;4978246;28;1394;-75
2023/06/03 00:33:33;;;;;;;;;;;;;;;21.67;30.20;97532.22;4981723;28;933;-75
2023/06/03 00:35:59;;;;;;;;;;;;;;;21.56;30.44;97531.78;5017521;28;1902;-75
2023/06/03 00:38:24;;;;;;;;;;;;;;;21.46;30.63;97521.63;4998457;28;1028;-75
2023/06/03 00:40:50;;;;;;;;;;;;;;;21.69;29.99;97523.25;5030921;28;1496;-75
2023/06/03 00:43:15;;;;;;;;;;;;;;;21.67;30.26;97520.91;4995075;28;1096;-75
2023/06/03 00:45:41;;;;;;;;;;;;;;;21.75;29.93;97519.38;4979621;28;1123;-76
2023/06/03 00:48:07;;;;;;;;;;;;;;;21.72;29.91;97516.69;4976028;28;1331;-75
2023/06/03 00:50:32;;;;;;;;;;;;;;;21.86;29.58;97533.16;4963491;28;1191;-75
2023/06/03 00:52:59;;;;;;;;;;;;;;;21.77;29.93;97531.06;4963059;28;941;-75
2023/06/03 00:55:24;;;;;;;;;;;;;;;21.12;31.24;97528.75;4959720;28;1899;-76
2023/06/03 00:57:50;;;;;;;;;;;;;;;21.60;30.16;97521.13;4971544;28;1347;-75
2023/06/03 01:00:15;;;;;;;;;;;;;;;21.59;30.09;97526.00;4918014;29;1364;-75
2023/06/03 01:02:43;;;;;;;;;;;;;;;21.90;29.64;97510.38;4918746;29;997;-75
2023/06/03 01:05:12;;;;;;;;;;;;;;;21.73;30.05;97521.88;4918419;29;1109;-75
2023/06/03 01:07:56;;;;;;;;;;;;;;;21.51;30.31;97513.34;4918078;29;1498;-75
2023/06/03 01:10:38;;;;;;;;;;;;;;;21.59;30.19;97513.88;4918724;29;950;-75
2023/06/03 01:13:07;;;;;;;;;;;;;;;21.59;29.92;97516.72;4918474;29;946;-76
2023/06/03 01:15:34;;;;;;;;;;;;;;;21.58;30.02;97513.09;4956630;29;1906;-76
2023/06/03 01:18:00;;;;;;;;;;;;;;;21.29;30.32;97516.06;4955890;29;1382;-75
2023/06/03 01:20:28;;;;;;;;;;;;;;;21.54;30.03;97517.28;4940735;29;967;-75
2023/06/03 01:22:57;;;;;;;;;;;;;;;21.44;30.14;97524.09;4940416;29;1394;-75
2023/06/03 01:25:23;;;;;;;;;;;;;;;21.33;30.33;97525.25;4940547;29;1350;-75
2023/06/03 01:27:49;;;;;;;;;;;;;;;21.65;29.79;97516.91;4953421;29;1340;-75
2023/06/03 01:30:15;;;;;;;;;;;;;;;21.33;30.27;97516.75;4950952;29;1519;-75
2023/06/03 01:32:41;;;;;;;;;;;;;;;21.71;29.96;97521.56;4948826;28;936;-75
2023/06/03 01:35:08;;;;;;;;;;;;;;;21.41;30.31;97513.72;4975443;28;1906;-76
2023/06/03 01:37:33;;;;;;;;;;;;;;;21.55;29.75;97514.03;4993829;28;1852;-75
2023/06/03 01:40:00;;;;;;;;;;;;;;;21.79;29.80;97517.22;5018879;28;1247;-75
2023/06/03 01:42:28;;;;;;;;;;;;;;;21.96;29.87;97519.88;4982422;28;1410;-75
2023/06/03 01:44:56;;;;;;;;;;;;;;;22.69;30.05;97520.44;4982334;28;1136;-75
2023/06/03 01:47:21;;;;;;;;;;;;;;;22.44;30.75;97521.41;4982513;28;1171;-75
2023/06/03 01:49:47;;;;;;;;;;;;;;;22.04;30.94;97518.38;4981951;28;1291;-75
2023/06/03 01:52:14;;;;;;;;;;;;;;;21.76;30.96;97518.16;4982600;28;1112;-75
2023/06/03 01:54:40;;;;;;;;;;;;;;;21.46;30.84;97515.97;4982134;28;1902;-74
2023/06/03 01:57:06;;;;;;;;;;;;;;;21.64;30.17;97515.34;4982513;28;1324;-76
2023/06/03 01:59:31;;;;;;;;;;;;;;;21.44;30.52;97513.56;4980466;28;1344;-75
2023/06/03 02:01:57;;;;;;;;;;;;;;;21.50;30.33;97514.59;4982350;28;1206;-75
2023/06/03 02:04:23;;;;;;;;;;;;;;;21.63;29.81;97511.72;4982112;28;1060;-77
2023/06/03 02:06:50;;;;;;;;;;;;;;;21.31;30.39;97512.81;4998396;28;1339;-75
2023/06/03 02:09:16;;;;;;;;;;;;;;;21.56;29.76;97520.47;4980947;28;1334;-75
2023/06/03 02:11:44;;;;;;;;;;;;;;;21.53;29.71;97527.81;4973876;28;1282;-76
2023/06/03 02:14:10;;;;;;;;;;;;;;;21.60;29.21;97532.44;4992025;28;1187;-76
2023/06/03 02:16:36;;;;;;;;;;;;;;;21.27;29.54;97526.25;4982778;28;1910;-76
2023/06/03 02:19:04;;;;;;;;;;;;;;;21.35;29.38;97521.16;4993990;28;1338;-75
2023/06/03 02:21:30;;;;;;;;;;;;;;;21.39;29.28;97521.84;5002255;28;1132;-75
2023/06/03 02:23:56;;;;;;;;;;;;;;;21.33;29.17;97524.47;5002303;28;1349;-75
2023/06/03 02:26:22;;;;;;;;;;;;;;;21.03;29.71;97528.63;5002071;28;1090;-75
2023/06/03 02:28:47;;;;;;;;;;;;;;;21.24;28.98;97533.63;5017332;28;1464;-75
2023/06/03 02:31:13;;;;;;;;;;;;;;;21.10;29.48;97528.41;5002582;28;1171;-76
2023/06/03 02:33:38;;;;;;;;;;;;;;;21.29;29.61;97535.84;5018280;28;1262;-75
2023/06/03 02:36:05;;;;;;;;;;;;;;;22.41;28.85;97532.88;5002420;28;1910;-76
2023/06/03 02:38:31;;;;;;;;;;;;;;;22.73;28.56;97531.63;5005239;28;1166;-75
2023/06/03 02:40:57;;;;;;;;;;;;;;;22.43;29.43;97530.34;4988948;28;1212;-75
2023/06/03 02:43:23;;;;;;;;;;;;;;;22.06;30.08;97524.38;5021057;28;1266;-75
2023/06/03 02:45:49;;;;;;;;;;;;;;;21.56;30.96;97528.97;5003663;28;1415;-75
2023/06/03 02:48:14;;;;;;;;;;;;;;;21.53;30.88;97521.38;4997280;28;1162;-75
2023/06/03 02:50:40;;;;;;;;;;;;;;;21.32;31.30;97523.66;4981453;28;1582;-75
2023/06/03 02:53:07;;;;;;;;;;;;;;;21.35;31.40;97519.16;4980124;28;1107;-76
2023/06/03 02:55:33;;;;;;;;;;;;;;;21.39;31.22;97522.63;4979639;28;1906;-76
2023/06/03 02:57:58;;;;;;;;;;;;;;;21.58;31.03;97520.81;4978469;28;1537;-76
2023/06/03 03:00:24;;;;;;;;;;;;;;;21.63;31.08;97519.44;4980130;28;1346;-76
2023/06/03 03:02:52;;;;;;;;;;;;;;;21.60;30.83;97521.13;4979165;28;1481;-76
2023/06/03 03:05:18;;;;;;;;;;;;;;;21.73;31.05;97515.44;4980523;28;1818;-75
2023/06/03 03:07:44;;;;;;;;;;;;;;;21.09;30.83;97396.72;4981142;28;1283;-76
2023/06/03 03:10:09;;;;;;;;;;;;;;;21.32;31.62;97518.00;4997282;28;1518;-75
2023/06/03 03:12:35;;;;;;;;;;;;;;;21.63;31.20;97520.22;4980075;28;1287;-76
2023/06/03 03:15:01;;;;;;;;;;;;;;;21.73;30.85;97507.72;4980769;28;1993;-75
2023/06/03 03:17:28;;;;;;;;;;;;;;;21.80;30.62;97521.63;4981248;28;1224;-75
2023/06/03 03:19:53;;;;;;;;;;;;;;;21.73;30.93;97524.72;5013792;28;952;-75
2023/06/03 03:22:19;;;;;;;;;;;;;;;21.92;30.63;97524.91;5017777;28;1306;-75
2023/06/03 03:24:45;;;;;;;;;;;;;;;22.14;30.21;97522.91;4978321;28;1455;-75
2023/06/03 03:27:12;;;;;;;;;;;;;;;22.10;30.23;97527.88;4993752;28;1381;-76
2023/06/03 03:29:44;;;;;;;;;;;;;;;21.68;31.10;97528.13;4942126;29;1081;-76
2023/06/03 03:32:09;;;;;;;;;;;;;;;21.78;30.97;97521.31;4921430;29;1534;-75
2023/06/03 03:34:41;;;;;;;;;;;;;;;22.01;30.47;97519.28;4907367;29;1478;-76
2023/06/03 03:37:08;;;;;;;;;;;;;;;21.74;30.99;97514.97;4907665;29;1257;-76
2023/06/03 03:39:37;;;;;;;;;;;;;;;22.03;30.71;97525.31;4922937;29;956;-75
2023/06/03 03:42:02;;;;;;;;;;;;;;;22.06;30.64;97513.81;4907117;28;1443;-75
2023/06/03 03:44:28;;;;;;;;;;;;;;;22.35;29.93;97522.13;4906885;29;1154;-75
2023/06/03 03:47:00;;;;;;;;;;;;;;;22.06;30.63;97522.31;4904137;29;1106;-75
2023/06/03 03:49:28;;;;;;;;;;;;;;;22.00;30.58;97529.03;4888179;29;1110;-75
2023/06/03 03:51:55;;;;;;;;;;;;;;;21.75;30.94;97527.88;4904000;29;1346;-75
2023/06/03 03:54:21;;;;;;;;;;;;;;;21.94;30.96;97528.06;4918922;29;1599;-75
2023/06/03 03:56:47;;;;;;;;;;;;;;;22.15;30.26;97520.88;4922360;29;1903;-75
2023/06/03 03:59:15;;;;;;;;;;;;;;;22.00;30.57;97526.22;4938203;29;1556;-75
2023/06/03 04:01:41;;;;;;;;;;;;;;;22.00;30.67;97531.88;4941771;29;906;-75
2023/06/03 04:04:16;;;;;;;;;;;;;;;21.92;30.55;97536.22;4979287;28;1203;-75
2023/06/03 04:06:42;;;;;;;;;;;;;;;21.89;30.84;97529.44;4963889;28;1105;-76
2023/06/03 04:09:11;;;;;;;;;;;;;;;21.97;30.54;97532.81;4963669;28;1152;-75
2023/06/03 04:11:36;;;;;;;;;;;;;;;22.30;29.88;97536.09;4977660;28;1057;-75
2023/06/03 04:14:03;;;;;;;;;;;;;;;21.64;31.41;97530.28;4965203;28;1151;-75
2023/06/03 04:16:47;;;;;;;;;;;;;;;21.80;31.14;97530.13;4944302;28;2045;-76
2023/06/03 04:19:19;;;;;;;;;;;;;;;21.84;31.20;97530.81;4996050;28;1150;-76
2023/06/03 04:21:45;;;;;;;;;;;;;;;22.00;30.69;97540.38;4980826;28;1073;-76
2023/06/03 04:24:11;;;;;;;;;;;;;;;21.83;31.19;97534.88;4996473;28;859;-75
2023/06/03 04:26:38;;;;;;;;;;;;;;;22.17;30.60;97535.34;4980641;28;1140;-76
2023/06/03 04:29:04;;;;;;;;;;;;;;;22.34;30.18;97540.38;4996176;28;1147;-76
2023/06/03 04:31:30;;;;;;;;;;;;;;;22.15;30.68;97538.66;4980957;28;1251;-76
2023/06/03 04:33:56;;;;;;;;;;;;;;;22.20;30.57;97543.72;4996388;28;796;-75
2023/06/03 04:36:22;;;;;;;;;;;;;;;22.15;30.69;97538.66;4996726;28;1906;-76
2023/06/03 04:38:48;;;;;;;;;;;;;;;21.93;31.03;97544.25;4962789;28;1095;-75
2023/06/03 04:41:16;;;;;;;;;;;;;;;21.90;31.37;97547.22;4979030;28;1144;-76
2023/06/03 04:43:43;;;;;;;;;;;;;;;21.82;31.50;97543.84;4963392;28;1199;-76
2023/06/03 04:46:10;;;;;;;;;;;;;;;21.77;31.56;97548.06;4959876;28;1243;-76
2023/06/03 04:48:36;;;;;;;;;;;;;;;21.88;31.26;97552.56;4961484;28;1128;-76
2023/06/03 04:51:06;;;;;;;;;;;;;;;22.26;30.59;97556.06;4963697;28;1141;-76
2023/06/03 04:53:32;;;;;;;;;;;;;;;22.45;30.46;97557.00;4963299;28;1140;-75
2023/06/03 04:55:58;;;;;;;;;;;;;;;22.50;30.33;97552.78;4963684;28;1915;-76
2023/06/03 04:58:24;;;;;;;;;;;;;;;21.98;31.20;97545.72;4975754;28;1104;-77
2023/06/03 05:00:51;;;;;;;;;;;;;;;21.97;31.35;97549.81;4960206;28;1800;-75
2023/06/03 05:03:17;;;;;;;;;;;;;;;22.20;30.97;97540.91;4943607;28;1152;-75
2023/06/03 05:05:46;;;;;;;;;;;;;;;22.14;31.07;97562.56;4944242;28;1192;-75
2023/06/03 05:08:18;;;;;;;;;;;;;;;21.92;31.51;97571.00;4944460;28;1237;-76
2023/06/03 05:10:45;;;;;;;;;;;;;;;22.11;31.44;97560.66;4944846;28;1168;-76
2023/06/03 05:13:10;;;;;;;;;;;;;;;22.03;31.47;97581.97;4975657;28;1176;-76
2023/06/03 05:15:37;;;;;;;;;;;;;;;22.12;31.18;97576.41;4960372;28;1981;-75
2023/06/03 05:18:03;;;;;;;;;;;;;;;22.25;31.24;97582.81;4941388;29;1143;-75
2023/06/03 05:20:30;;;;;;;;;;;;;;;22.20;31.13;97586.25;4926091;29;1490;-76
2023/06/03 05:22:56;;;;;;;;;;;;;;;22.36;30.71;97583.22;4925134;29;1253;-76
2023/06/03 05:25:22;;;;;;;;;;;;;;;22.03;31.46;97587.63;4925647;29;1248;-75
2023/06/03 05:27:48;;;;;;;;;;;;;;;21.79;32.03;97593.69;4925640;29;1157;-75
2023/06/03 05:30:14;;;;;;;;;;;;;;;21.95;31.89;97597.63;4941998;29;1182;-76
2023/06/03 05:32:40;;;;;;;;;;;;;;;22.12;31.41;97601.09;4960567;29;982;-76
2023/06/03 05:35:06;;;;;;;;;;;;;;;21.97;31.55;97603.63;4960120;28;1906;-76
2023/06/03 05:37:31;;;;;;;;;;;;;;;22.25;31.10;97605.50;4944433;29;1129;-76
2023/06/03 05:39:59;;;;;;;;;;;;;;;22.40;30.87;97605.00;4943841;29;1270;-75
2023/06/03 05:42:25;;;;;;;;;;;;;;;22.30;30.84;97612.63;4944518;29;1098;-76
2023/06/03 05:44:51;;;;;;;;;;;;;;;22.22;30.90;97612.06;4959505;29;960;-76
2023/06/03 05:47:16;;;;;;;;;;;;;;;22.32;30.74;97622.22;4944137;29;1343;-76
2023/06/03 05:49:42;;;;;;;;;;;;;;;21.85;31.82;97620.19;4959081;28;1268;-76
2023/06/03 05:52:08;;;;;;;;;;;;;;;21.69;31.99;97623.16;4963764;28;1295;-76
2023/06/03 05:54:34;;;;;;;;;;;;;;;21.93;31.75;97622.78;4924831;29;875;-76
2023/06/03 05:57:00;;;;;;;;;;;;;;;22.08;31.21;97626.72;4924976;29;1906;-76
2023/06/03 05:59:29;;;;;;;;;;;;;;;21.97;31.73;97637.63;4909007;29;1287;-76
2023/06/03 06:01:54;;;;;;;;;;;;;;;21.99;31.49;97640.78;4909636;29;752;-77
2023/06/03 06:04:20;;;;;;;;;;;;;;;21.95;31.55;97637.28;4908704;29;1154;-76
2023/06/03 06:06:46;;;;;;;;;;;;;;;22.01;31.48;97647.56;4924439;29;1138;-75
2023/06/03 06:09:12;;;;;;;;;;;;;;;22.08;31.17;97660.72;4959660;28;1356;-76
2023/06/03 06:11:38;;;;;;;;;;;;;;;22.33;30.88;97669.19;4943655;29;1212;-76
2023/06/03 06:14:04;;;;;;;;;;;;;;;22.08;31.50;97680.56;4927482;29;1263;-76
2023/06/03 06:16:30;;;;;;;;;;;;;;;22.03;31.41;97675.47;4927670;29;1914;-76
2023/06/03 06:18:56;;;;;;;;;;;;;;;22.04;31.33;97671.38;4943906;29;1270;-75
2023/06/03 06:21:22;;;;;;;;;;;;;;;22.20;31.07;97659.91;4944019;29;1180;-76
2023/06/03 06:23:48;;;;;;;;;;;;;;;22.20;31.16;97665.59;4943248;29;1143;-76
2023/06/03 06:26:14;;;;;;;;;;;;;;;22.22;31.27;97668.75;4974123;28;1186;-76
2023/06/03 06:28:40;;;;;;;;;;;;;;;22.13;31.47;97665.06;4996101;28;1131;-77
2023/06/03 06:31:09;;;;;;;;;;;;;;;22.08;31.64;97674.88;4997809;28;1104;-76
2023/06/03 06:33:40;;;;;;;;;;;;;;;22.41;30.76;97671.75;4997320;28;1346;-76
2023/06/03 06:36:25;;;;;;;;;;;;;;;22.12;31.30;97669.91;4998088;28;1902;-76
2023/06/03 06:38:51;;;;;;;;;;;;;;;21.79;32.05;97658.03;4981532;28;1151;-75
2023/06/03 06:41:16;;;;;;;;;;;;;;;21.83;31.99;97670.84;4998344;28;917;-77
2023/06/03 06:43:42;;;;;;;;;;;;;;;21.83;32.04;97665.16;4997746;28;1107;-76
2023/06/03 06:46:08;;;;;;;;;;;;;;;22.03;31.68;97675.47;4981612;28;990;-76
2023/06/03 06:48:34;;;;;;;;;;;;;;;22.08;31.52;97669.22;4997788;28;928;-75
2023/06/03 06:51:03;;;;;;;;;;;;;;;22.20;31.62;97670.47;4999447;28;1120;-76
2023/06/03 06:53:32;;;;;;;;;;;;;;;22.32;31.09;97664.75;4998142;28;1266;-76
2023/06/03 06:56:08;;;;;;;;;;;;;;;22.34;31.11;97670.78;4999058;28;1934;-76
2023/06/03 06:58:53;;;;;;;;;;;;;;;22.31;31.07;97682.22;4997974;28;1063;-77
2023/06/03 07:01:19;;;;;;;;;;;;;;;21.98;31.80;97681.69;4998620;28;1081;-75
2023/06/03 07:03:48;;;;;;;;;;;;;;;22.20;31.47;97681.81;4998076;28;1463;-76
2023/06/03 07:06:15;;;;;;;;;;;;;;;22.19;31.72;97674.56;4998607;28;1055;-75
2023/06/03 07:08:42;;;;;;;;;;;;;;;22.22;31.51;97685.75;4997922;28;1127;-75
2023/06/03 07:11:07;;;;;;;;;;;;;;;22.18;31.34;97685.09;5014908;28;1278;-75
2023/06/03 07:13:51;;;;;;;;;;;;;;;22.05;31.86;97698.44;4998428;28;1206;-75
2023/06/03 07:16:18;;;;;;;;;;;;;;;22.33;31.16;97702.41;4998280;28;1973;-75
2023/06/03 07:18:44;;;;;;;;;;;;;;;21.91;32.07;97698.91;4996730;28;1274;-76
2023/06/03 07:21:10;;;;;;;;;;;;;;;21.97;31.88;97705.63;4981045;28;1302;-75
2023/06/03 07:23:35;;;;;;;;;;;;;;;21.81;32.04;97712.16;4997182;28;819;-76
2023/06/03 07:26:02;;;;;;;;;;;;;;;22.35;31.08;97703.53;4981520;28;1200;-77
2023/06/03 07:28:33;;;;;;;;;;;;;;;21.85;32.03;97712.84;4996509;28;1463;-76
2023/06/03 07:31:08;;;;;;;;;;;;;;;22.04;31.78;97708.22;4981050;28;1163;-76
2023/06/03 07:33:35;;;;;;;;;;;;;;;22.03;31.59;97706.63;4980171;28;1458;-75
2023/06/03 07:36:02;;;;;;;;;;;;;;;21.83;32.00;97715.38;4980907;28;1971;-76
2023/06/03 07:38:50;;;;;;;;;;;;;;;22.13;31.47;97710.38;4980310;28;1230;-76
2023/06/03 07:41:17;;;;;;;;;;;;;;;22.27;31.24;97716.34;5013370;28;1409;-77
2023/06/03 07:43:44;;;;;;;;;;;;;;;22.18;31.74;97713.44;4957386;29;1262;-75
2023/06/03 07:46:09;;;;;;;;;;;;;;;22.14;31.51;97718.44;4958222;29;951;-76
2023/06/03 07:48:38;;;;;;;;;;;;;;;21.96;32.01;97712.50;4925596;29;1007;-75
2023/06/03 07:51:07;;;;;;;;;;;;;;;22.22;31.23;97718.97;4958269;29;1172;-75
2023/06/03 07:53:35;;;;;;;;;;;;;;;21.90;31.88;97714.34;4957417;29;965;-75
2023/06/03 07:56:10;;;;;;;;;;;;;;;22.05;31.27;97715.44;4957867;29;1975;-76
2023/06/03 07:58:36;;;;;;;;;;;;;;;21.81;31.56;97713.00;4957181;29;901;-76
2023/06/03 08:01:02;;;;;;;;;;;;;;;22.00;31.28;97713.19;4957685;29;1233;-76
2023/06/03 08:03:27;;;;;;;;;;;;;;;21.82;31.48;97714.56;4941256;29;1282;-76
2023/06/03 08:05:53;;;;;;;;;;;;;;;21.72;31.66;97714.91;4957432;29;1065;-76
2023/06/03 08:08:18;;;;;;;;;;;;;;;21.76;31.52;97699.41;4957336;29;973;-75
2023/06/03 08:10:47;;;;;;;;;;;;;;;21.91;31.04;97704.59;4957988;29;1050;-77
2023/06/03 08:13:13;;;;;;;;;;;;;;;22.10;30.89;97709.22;4957014;29;984;-75
2023/06/03 08:15:39;;;;;;;;;;;;;;;21.78;31.18;97702.56;4975650;28;1910;-76
2023/06/03 08:18:06;;;;;;;;;;;;;;;22.13;30.64;97704.72;4980342;28;965;-75
2023/06/03 08:20:32;;;;;;;;;;;;;;;21.69;31.24;97710.94;4980322;28;925;-75
2023/06/03 08:22:57;;;;;;;;;;;;;;;21.79;31.03;97700.50;4979727;28;889;-76
2023/06/03 08:25:23;;;;;;;;;;;;;;;21.99;30.66;97706.72;4976254;28;963;-75
2023/06/03 08:27:49;;;;;;;;;;;;;;;22.06;30.62;97711.38;4953694;29;1243;-76
2023/06/03 08:30:14;;;;;;;;;;;;;;;21.82;30.80;97725.91;4925202;29;977;-76
2023/06/03 08:32:42;;;;;;;;;;;;;;;21.68;31.27;97709.34;4941469;29;1191;-76
2023/06/03 08:35:08;;;;;;;;;;;;;;;22.02;30.85;97716.34;4941316;29;1914;-75
2023/06/03 08:37:33;;;;;;;;;;;;;;;21.79;31.21;97712.63;4957080;29;942;-76
2023/06/03 08:40:05;;;;;;;;;;;;;;;21.83;30.99;97715.38;4940779;29;1352;-76
2023/06/03 08:42:33;;;;;;;;;;;;;;;21.88;30.64;97711.97;4956964;29;915;-75
2023/06/03 08:45:01;;;;;;;;;;;;;;;21.69;30.92;97713.75;4957197;29;1093;-75
2023/06/03 08:47:46;;;;;;;;;;;;;;;21.77;30.97;97711.50;4957289;29;1045;-75
2023/06/03 08:50:11;;;;;;;;;;;;;;;21.82;30.85;97720.25;4955960;29;1152;-75
2023/06/03 08:52:37;;;;;;;;;;;;;;;21.90;30.70;97720.00;4956562;29;1136;-75
2023/06/03 08:55:04;;;;;;;;;;;;;;;21.85;30.50;97716.47;4956467;29;1988;-75
2023/06/03 08:57:38;;;;;;;;;;;;;;;21.60;31.30;97724.97;4933886;29;1170;-75
2023/06/03 09:00:07;;;;;;;;;;;;;;;21.67;31.01;97730.44;4937558;29;1251;-76
2023/06/03 09:02:34;;;;;;;;;;;;;;;21.71;30.78;97725.44;4945246;29;1250;-76
2023/06/03 09:05:01;;;;;;;;;;;;;;;21.87;30.45;97724.53;4941178;29;1078;-75
2023/06/03 09:07:27;;;;;;;;;;;;;;;22.17;30.04;97731.66;4925030;29;1152;-76
2023/06/03 09:09:52;;;;;;;;;;;;;;;21.73;30.89;97728.59;4921448;29;1241;-76
2023/06/03 09:12:18;;;;;;;;;;;;;;;21.89;30.72;97718.41;4922122;29;978;-76
2023/06/03 09:14:44;;;;;;;;;;;;;;;22.03;30.27;97720.78;4921857;29;845;-76
2023/06/03 09:17:09;;;;;;;;;;;;;;;21.66;30.99;97728.84;4942246;29;1981;-75
2023/06/03 09:19:35;;;;;;;;;;;;;;;21.58;30.91;97727.47;4937692;29;880;-76
2023/06/03 09:22:02;;;;;;;;;;;;;;;21.93;30.59;97721.94;4937870;29;947;-76
2023/06/03 09:24:27;;;;;;;;;;;;;;;21.84;30.79;97723.41;4921563;29;875;-75
2023/06/03 09:26:53;;;;;;;;;;;;;;;21.84;30.78;97734.72;4922047;29;864;-75
2023/06/03 09:29:20;;;;;;;;;;;;;;;21.82;30.56;97734.41;4953656;28;1074;-75
2023/06/03 09:31:46;;;;;;;;;;;;;;;22.01;30.40;97732.56;4960288;28;1155;-75
2023/06/03 09:34:12;;;;;;;;;;;;;;;21.95;30.29;97733.59;4960030;28;927;-75
2023/06/03 09:36:44;;;;;;;;;;;;;;;22.18;29.79;97729.66;4944124;28;1978;-76
2023/06/03 09:39:10;;;;;;;;;;;;;;;21.92;30.48;97737.34;4943761;28;908;-76
2023/06/03 09:41:36;;;;;;;;;;;;;;;21.81;30.59;97727.16;4960258;28;1148;-75
2023/06/03 09:44:02;;;;;;;;;;;;;;;22.01;30.33;97737.44;4943716;28;925;-76
2023/06/03 09:46:31;;;;;;;;;;;;;;;21.69;30.65;97742.09;4968133;28;1212;-77
2023/06/03 09:49:09;;;;;;;;;;;;;;;21.94;30.66;97737.69;4992834;28;993;-76
2023/06/03 09:51:42;;;;;;;;;;;;;;;21.96;30.10;97738.00;4993398;28;954;-75
2023/06/03 09:54:12;;;;;;;;;;;;;;;21.59;30.72;97746.03;4993699;28;1217;-75
2023/06/03 09:56:38;;;;;;;;;;;;;;;21.67;30.73;97747.41;4976451;28;1906;-75
2023/06/03 09:59:16;;;;;;;;;;;;;;;21.78;30.48;97747.88;4994942;28;1067;-76
2023/06/03 10:01:42;;;;;;;;;;;;;;;21.73;30.48;97745.59;4979539;28;1227;-76
2023/06/03 10:04:08;;;;;;;;;;;;;;;21.68;30.86;97749.00;4982275;28;911;-77
2023/06/03 10:06:37;;;;;;;;;;;;;;;21.52;30.93;97746.25;4982558;28;1118;-76
2023/06/03 10:09:21;;;;;;;;;;;;;;;21.82;30.44;97731.56;4997921;28;876;-76
2023/06/03 10:11:47;;;;;;;;;;;;;;;21.80;30.42;97738.91;4998766;28;1055;-75
2023/06/03 10:14:14;;;;;;;;;;;;;;;21.67;30.65;97747.41;4966099;28;980;-76
2023/06/03 10:16:40;;;;;;;;;;;;;;;21.54;30.84;97749.44;4981573;28;2020;-76
2023/06/03 10:19:05;;;;;;;;;;;;;;;21.54;30.89;97752.25;5001646;28;1329;-75
2023/06/03 10:21:31;;;;;;;;;;;;;;;21.77;30.61;97754.00;5018369;28;872;-75
2023/06/03 10:23:58;;;;;;;;;;;;;;;22.03;30.21;97743.47;5001867;28;820;-76
2023/06/03 10:26:23;;;;;;;;;;;;;;;21.67;30.70;97753.06;4986143;28;907;-76
2023/06/03 10:28:49;;;;;;;;;;;;;;;21.39;31.43;97753.94;5001327;28;972;-76
2023/06/03 10:31:14;;;;;;;;;;;;;;;21.68;30.84;97754.66;5001860;28;852;-76
2023/06/03 10:33:40;;;;;;;;;;;;;;;21.73;30.56;97765.44;5002297;28;876;-77
2023/06/03 10:36:06;;;;;;;;;;;;;;;21.81;30.26;97746.97;5002870;28;1914;-76
2023/06/03 10:38:32;;;;;;;;;;;;;;;21.61;30.62;97754.88;5018536;28;833;-77
2023/06/03 10:41:03;;;;;;;;;;;;;;;21.79;30.67;97760.78;5019995;28;961;-77
2023/06/03 10:43:30;;;;;;;;;;;;;;;21.72;30.67;97751.72;5001656;28;708;-76
2023/06/03 10:45:56;;;;;;;;;;;;;;;21.71;30.63;97758.59;4986514;28;1251;-77
2023/06/03 10:48:21;;;;;;;;;;;;;;;21.56;30.83;97752.63;5018255;28;830;-77
2023/06/03 10:50:47;;;;;;;;;;;;;;;21.45;31.31;97740.78;5018956;28;974;-77
2023/06/03 10:53:12;;;;;;;;;;;;;;;21.81;30.52;97740.50;5019737;28;818;-77
2023/06/03 10:55:56;;;;;;;;;;;;;;;21.66;30.87;97740.16;5019759;28;1963;-77
2023/06/03 10:58:23;;;;;;;;;;;;;;;21.66;30.73;97740.16;5018611;28;1203;-76
2023/06/03 11:01:04;;;;;;;;;;;;;;;21.72;30.73;97738.34;5018805;28;1044;-77
2023/06/03 11:03:48;;;;;;;;;;;;;;;21.73;30.41;97742.78;4997452;28;1563;-77
2023/06/03 11:06:17;;;;;;;;;;;;;;;21.63;30.83;97743.91;4998062;28;1246;-77
2023/06/03 11:08:57;;;;;;;;;;;;;;;21.96;30.10;97740.84;4997263;28;1111;-77
2023/06/03 11:11:40;;;;;;;;;;;;;;;22.07;30.19;97738.44;4981456;28;1325;-76
2023/06/03 11:14:27;;;;;;;;;;;;;;;21.69;30.59;97747.75;4996432;28;915;-77
2023/06/03 11:16:58;;;;;;;;;;;;;;;21.68;30.95;97749.00;4942940;29;1979;-76
2023/06/03 11:19:33;;;;;;;;;;;;;;;21.93;30.16;97741.75;4958725;29;926;-77
2023/06/03 11:21:59;;;;;;;;;;;;;;;21.83;30.60;97740.84;4942940;29;1280;-76
2023/06/03 11:24:42;;;;;;;;;;;;;;;21.75;30.62;97748.75;4942542;29;984;-77
2023/06/03 11:27:14;;;;;;;;;;;;;;;22.02;29.96;97744.69;4942645;29;972;-78
2023/06/03 11:29:45;;;;;;;;;;;;;;;21.71;30.53;97748.09;4958235;29;935;-77
2023/06/03 11:32:14;;;;;;;;;;;;;;;21.76;30.34;97755.22;4958667;29;920;-77
2023/06/03 11:34:40;;;;;;;;;;;;;;;21.89;30.24;97752.41;4953474;28;1320;-76
2023/06/03 11:37:06;;;;;;;;;;;;;;;21.82;30.58;97753.44;4938893;29;1902;-77
2023/06/03 11:39:52;;;;;;;;;;;;;;;21.85;30.25;97741.97;4938510;29;823;-77
2023/06/03 11:42:17;;;;;;;;;;;;;;;21.75;30.74;97754.44;4848127;29;1211;-76
2023/06/03 11:44:43;;;;;;;;;;;;;;;21.53;30.84;97753.50;4863551;29;847;-77
2023/06/03 11:47:09;;;;;;;;;;;;;;;21.66;30.60;97751.50;4848142;29;1160;-77
2023/06/03 11:49:35;;;;;;;;;;;;;;;21.42;31.04;97753.03;4847524;29;843;-76
2023/06/03 11:52:01;;;;;;;;;;;;;;;21.35;31.21;97753.22;4848302;29;856;-76
2023/06/03 11:54:26;;;;;;;;;;;;;;;21.59;30.80;97735.50;4861034;29;1048;-76
2023/06/03 11:56:54;;;;;;;;;;;;;;;21.67;30.67;97747.41;4882715;29;1918;-78
2023/06/03 11:59:20;;;;;;;;;;;;;;;21.87;30.05;97737.91;4863458;29;1098;-77
2023/06/03 12:02:02;;;;;;;;;;;;;;;21.44;31.04;97744.88;4863780;29;1013;-77
2023/06/03 12:04:27;;;;;;;;;;;;;;;21.78;30.33;97741.41;4900805;29;923;-76
2023/06/03 12:06:53;;;;;;;;;;;;;;;21.47;30.94;97749.66;4885144;29;997;-77
2023/06/03 12:09:19;;;;;;;;;;;;;;;21.55;30.71;97751.00;4884799;29;872;-77
2023/06/03 12:11:44;;;;;;;;;;;;;;;21.53;30.85;97747.84;4900766;29;1015;-77
2023/06/03 12:14:10;;;;;;;;;;;;;;;21.79;30.25;97755.13;4898475;29;1005;-77
2023/06/03 12:16:36;;;;;;;;;;;;;;;21.78;30.34;97753.53;4938743;29;1948;-77
2023/06/03 12:19:05;;;;;;;;;;;;;;;21.44;30.84;97759.03;4951671;28;946;-77
2023/06/03 12:21:31;;;;;;;;;;;;;;;21.60;30.82;97758.94;4977482;28;937;-78
2023/06/03 12:23:56;;;;;;;;;;;;;;;21.76;30.31;97756.03;4976627;28;970;-77
2023/06/03 12:26:23;;;;;;;;;;;;;;;21.73;30.36;97762.59;4976920;28;1013;-77
2023/06/03 12:28:49;;;;;;;;;;;;;;;21.54;30.65;97760.75;4977003;28;905;-77
2023/06/03 12:31:15;;;;;;;;;;;;;;;21.76;30.23;97767.38;4994647;28;1001;-77
2023/06/03 12:33:41;;;;;;;;;;;;;;;21.71;30.37;97770.75;4979733;28;1157;-77
2023/06/03 12:36:06;;;;;;;;;;;;;;;21.66;30.34;97774.16;4979956;28;1906;-76
2023/06/03 12:38:32;;;;;;;;;;;;;;;21.63;30.42;97775.03;4979207;28;1052;-76
2023/06/03 12:41:08;;;;;;;;;;;;;;;21.85;30.34;97775.97;4974324;28;959;-76
2023/06/03 12:43:34;;;;;;;;;;;;;;;21.81;30.19;97780.97;4937680;29;934;-77
2023/06/03 12:46:20;;;;;;;;;;;;;;;21.68;30.19;97790.69;4938605;29;979;-77
2023/06/03 12:48:45;;;;;;;;;;;;;;;21.40;30.99;97783.81;4937445;29;1072;-77
2023/06/03 12:51:21;;;;;;;;;;;;;;;21.82;30.14;97787.41;4959859;28;917;-77
2023/06/03 12:53:47;;;;;;;;;;;;;;;21.71;30.35;97786.94;4960626;28;1003;-76
2023/06/03 12:56:13;;;;;;;;;;;;;;;21.37;31.24;97791.19;4960530;28;1906;-76
2023/06/03 12:58:39;;;;;;;;;;;;;;;21.62;30.48;97781.16;4960245;28;1020;-76
2023/06/03 13:01:04;;;;;;;;;;;;;;;21.91;29.91;97783.88;4976284;28;1137;-76
2023/06/03 13:03:30;;;;;;;;;;;;;;;21.62;30.47;97784.78;4918496;29;986;-76